KDSV/DSV METAR and TAF weather

Enter ICAO airport designator
Station Type Date Time Source
KDSV METAR 2023/02/05 12:54 UTC NOAA

KDSV 051254Z AUTO 13004KT 10SM CLR 00/M08 A2998 RMK AO2 SLP168 T00001078


Station Type Date Time Source
KDSV Decoded METAR 2023/02/05 12:54 UTC NOAA

DANSVILLE MUNICIPAL AIRPORT, NY, United States (KDSV) 42-34N 077-43W 198M
Feb 05, 2023 - 07:54 AM EST / 2023.02.05 1254 UTC
Wind: from the SE (130 degrees) at 5 MPH (4 KT):0
Visibility: 10 mile(s):0
Sky conditions: clear
Temperature: 32.0 F (0.0 C)
Windchill: 26 F (-3 C):1
Dew Point: 18.0 F (-7.8 C)
Relative Humidity: 55%
Pressure (altimeter): 29.98 in. Hg (1015 hPa)
ob: KDSV 051254Z AUTO 13004KT 10SM CLR 00/M08 A2998 RMK AO2 SLP168 T00001078
cycle: 13

Station Type Date Time Source
KDSV TAF UTC NOAA

Error!

Example: see airport list